Time;durP1;ratioP1;P1;durP2;ratioP2;P2;SDS_P1;SDS_P2;PMS_P1;PMS_P2;Temp;Humidity;BMP_temperature;BMP_pressure;BME280_temperature;BME280_humidity;BME280_pressure;Samples;Min_cycle;Max_cycle;Signal;HPM_P1;HPM_P2
2021/10/17 00:00:52;;;;;;;;;50.00;40.00;;;;;;;;2;160719192;160719192;-79
2021/10/17 00:06:45;;;;;;;;;44.00;38.50;;;;;;;;2;174155605;174155605;-79
2021/10/17 00:11:50;;;;;;;;;52.50;44.00;;;;;;;;2;159292428;159292428;-79
2021/10/17 00:17:49;;;;;;;;;43.00;38.50;;;;;;;;2;181882244;181882244;-78
2021/10/17 00:23:14;;;;;;;;;54.50;46.00;;;;;;;;2;172705083;172705083;-78
2021/10/17 00:29:28;;;;;;;;;56.00;47.00;;;;;;;;2;191614529;191614529;-79
2021/10/17 00:35:05;;;;;;;;;50.00;43.00;;;;;;;;2;175714901;175714901;-80
2021/10/17 00:41:24;;;;;;;;;52.50;42.50;;;;;;;;2;190432030;190432030;-81
2021/10/17 00:46:50;;;;;;;;;62.00;48.00;;;;;;;;2;169155710;169155710;-81
2021/10/17 00:53:03;;;;;;;;;54.00;45.50;;;;;;;;2;192841800;192841800;-80
2021/10/17 00:58:36;;;;;;;;;61.50;50.50;;;;;;;;2;173199511;173199511;-80
2021/10/17 01:04:59;;;;;;;;;56.00;47.00;;;;;;;;2;189748035;189748035;-80
2021/10/17 01:10:36;;;;;;;;;57.50;46.00;;;;;;;;2;178150744;178150744;-80
2021/10/17 01:16:55;;;;;;;;;51.00;43.50;;;;;;;;2;189546248;189546248;-78
2021/10/17 01:22:28;;;;;;;;;52.00;44.50;;;;;;;;2;173552776;173552776;-78
2021/10/17 01:29:10;;;;;;;;;40.50;36.50;;;;;;;;2;200827243;200827243;-78
2021/10/17 01:34:56;;;;;;;;;52.00;43.50;;;;;;;;2;178719686;178719686;-78
2021/10/17 01:41:29;;;;;;;;;38.50;33.50;;;;;;;;2;201709400;201709400;-78
2021/10/17 01:47:09;;;;;;;;;58.00;49.00;;;;;;;;2;173685553;173685553;-78
2021/10/17 01:53:49;;;;;;;;;50.00;42.50;;;;;;;;2;201270330;201270330;-78
2021/10/17 01:59:43;;;;;;;;;53.50;45.00;;;;;;;;2;185784474;185784474;-79
2021/10/17 02:06:32;;;;;;;;;48.00;41.00;;;;;;;;2;208641920;208641920;-79
2021/10/17 02:12:32;;;;;;;;;42.00;37.00;;;;;;;;2;190784972;190784972;-79
2021/10/17 02:19:30;;;;;;;;;52.50;44.50;;;;;;;;2;193650327;193650327;-78
2021/10/17 02:25:51;;;;;;;;;60.50;50.50;;;;;;;;2;201458399;201458399;-77
2021/10/17 02:32:34;;;;;;;;;60.50;49.50;;;;;;;;2;204514903;204514903;-77
2021/10/17 02:38:20;;;;;;;;;54.00;43.50;;;;;;;;2;180433952;180433952;-77
2021/10/17 02:44:47;;;;;;;;;55.50;47.00;;;;;;;;2;202437717;202437717;-78
2021/10/17 02:50:26;;;;;;;;;54.00;45.50;;;;;;;;2;178454745;178454745;-78
2021/10/17 02:56:53;;;;;;;;;54.00;45.50;;;;;;;;2;198580532;198580532;-77
2021/10/17 03:02:24;;;;;;;;;63.00;52.50;;;;;;;;2;176226644;176226644;-78
2021/10/17 03:08:48;;;;;;;;;60.00;50.00;;;;;;;;2;191538302;191538302;-78
2021/10/17 03:14:17;;;;;;;;;60.00;50.00;;;;;;;;2;176492704;176492704;-78
2021/10/17 03:20:36;;;;;;;;;53.50;45.50;;;;;;;;2;181674749;181674749;-78
2021/10/17 03:26:47;;;;;;;;;47.00;40.50;;;;;;;;2;198297166;198297166;-78
2021/10/17 03:34:07;;;;;;;;;47.00;38.00;;;;;;;;2;226582558;226582558;-78
2021/10/17 03:40:14;;;;;;;;;63.00;51.00;;;;;;;;2;200850378;200850378;-78
2021/10/17 03:47:13;;;;;;;;;48.00;41.50;;;;;;;;2;218997239;218997239;-78
2021/10/17 03:53:27;;;;;;;;;57.00;43.00;;;;;;;;2;194103101;194103101;-78
2021/10/17 04:00:08;;;;;;;;;34.00;32.50;;;;;;;;2;202312329;202312329;-78
2021/10/17 04:06:35;;;;;;;;;57.00;47.00;;;;;;;;2;207004015;207004015;-77
2021/10/17 04:13:39;;;;;;;;;48.50;40.00;;;;;;;;2;204839855;204839855;-77
2021/10/17 04:19:39;;;;;;;;;54.00;45.00;;;;;;;;2;197135951;197135951;-77
2021/10/17 04:26:37;;;;;;;;;44.50;39.00;;;;;;;;2;220505375;220505375;-77
2021/10/17 04:33:01;;;;;;;;;50.50;42.50;;;;;;;;2;199378985;199378985;-78
2021/10/17 04:40:26;;;;;;;;;39.50;35.50;;;;;;;;2;230150142;230150142;-78
2021/10/17 04:47:14;;;;;;;;;50.50;43.00;;;;;;;;2;219308238;219308238;-78
2021/10/17 04:54:48;;;;;;;;;43.00;37.50;;;;;;;;2;230600642;230600642;-77
2021/10/17 05:01:29;;;;;;;;;29.50;29.50;;;;;;;;2;215028796;215028796;-78
2021/10/17 05:08:37;;;;;;;;;31.00;29.50;;;;;;;;2;219162127;219162127;-78
2021/10/17 05:15:31;;;;;;;;;47.00;40.50;;;;;;;;2;210871707;210871707;-78
2021/10/17 05:23:23;;;;;;;;;51.00;43.50;;;;;;;;2;242784488;242784488;-78
2021/10/17 05:30:17;;;;;;;;;50.50;42.50;;;;;;;;2;218874053;218874053;-78
2021/10/17 05:38:22;;;;;;;;;33.00;31.00;;;;;;;;2;245799172;245799172;-78
2021/10/17 05:45:25;;;;;;;;;33.00;31.50;;;;;;;;2;220537416;220537416;-78
2021/10/17 05:53:53;;;;;;;;;38.50;34.00;;;;;;;;2;253242580;253242580;-78
2021/10/17 06:01:18;;;;;;;;;37.00;34.00;;;;;;;;2;234557676;234557676;-78
2021/10/17 06:09:54;;;;;;;;;28.50;26.50;;;;;;;;2;257384777;257384777;-79
2021/10/17 06:17:30;;;;;;;;;51.50;44.00;;;;;;;;2;242514973;242514973;-77
2021/10/17 06:26:17;;;;;;;;;50.00;42.00;;;;;;;;2;266539150;266539150;-78
2021/10/17 06:33:54;;;;;;;;;52.50;44.00;;;;;;;;2;242569881;242569881;-77
2021/10/17 06:42:48;;;;;;;;;53.50;45.50;;;;;;;;2;270706385;270706385;-77
2021/10/17 06:50:34;;;;;;;;;28.50;28.00;;;;;;;;2;245699249;245699249;-77
2021/10/17 06:59:27;;;;;;;;;39.50;35.50;;;;;;;;2;270751178;270751178;-78
2021/10/17 07:07:14;;;;;;;;;42.50;36.50;;;;;;;;2;245371388;245371388;-78
2021/10/17 07:16:13;;;;;;;;;36.00;32.50;;;;;;;;2;271819999;271819999;-81
2021/10/17 07:24:00;;;;;;;;;34.00;29.50;;;;;;;;2;244093114;244093114;-78
2021/10/17 07:32:58;;;;;;;;;54.50;45.00;;;;;;;;2;274111931;274111931;-80
2021/10/17 07:40:39;;;;;;;;;41.00;36.50;;;;;;;;2;241953559;241953559;-79
2021/10/17 07:49:34;;;;;;;;;38.00;32.50;;;;;;;;2;271988352;271988352;-84
2021/10/17 07:57:16;;;;;;;;;68.50;59.00;;;;;;;;2;244661824;244661824;-81
2021/10/17 08:20:00;;;;;;;;;70.00;52.00;;;;;;;;175543;28;261077358;-75
2021/10/17 08:29:27;;;;;;;;;57.00;46.50;;;;;;;;2;288086938;288086938;-77
2021/10/17 08:37:43;;;;;;;;;65.00;48.50;;;;;;;;2;261078359;261078359;-79
2021/10/17 08:47:12;;;;;;;;;53.00;43.00;;;;;;;;2;288084517;288084517;-77
2021/10/17 08:55:28;;;;;;;;;62.00;50.00;;;;;;;;2;261078127;261078127;-77
2021/10/17 09:04:59;;;;;;;;;73.00;58.50;;;;;;;;2;288081866;288081866;-77
2021/10/17 09:13:15;;;;;;;;;56.50;46.00;;;;;;;;2;261081295;261081295;-77
2021/10/17 09:22:42;;;;;;;;;54.50;44.50;;;;;;;;2;288086599;288086599;-79
2021/10/17 09:30:58;;;;;;;;;30.00;25.50;;;;;;;;2;261079839;261079839;-80
2021/10/17 09:40:26;;;;;;;;;48.50;40.00;;;;;;;;2;288085905;288085905;-79
2021/10/17 09:48:43;;;;;;;;;28.50;28.00;;;;;;;;2;261075480;261075480;-79
2021/10/17 09:58:10;;;;;;;;;44.00;37.50;;;;;;;;2;288082713;288082713;-79
2021/10/17 10:06:26;;;;;;;;;44.00;37.00;;;;;;;;2;261074963;261074963;-77
2021/10/17 10:15:54;;;;;;;;;54.00;44.50;;;;;;;;2;288084501;288084501;-80
2021/10/17 10:24:11;;;;;;;;;45.00;38.00;;;;;;;;2;261076564;261076564;-79
2021/10/17 10:33:45;;;;;;;;;51.00;41.50;;;;;;;;2;288086054;288086054;-79
2021/10/17 10:42:02;;;;;;;;;44.50;37.00;;;;;;;;2;261073930;261073930;-79
2021/10/17 10:51:44;;;;;;;;;38.50;35.00;;;;;;;;2;288088359;288088359;-79
2021/10/17 11:00:06;;;;;;;;;66.50;55.00;;;;;;;;2;261079320;261079320;-79
2021/10/17 11:09:34;;;;;;;;;39.50;35.50;;;;;;;;2;288084915;288084915;-79
2021/10/17 11:17:49;;;;;;;;;43.00;36.00;;;;;;;;2;261073283;261073283;-79
2021/10/17 11:27:17;;;;;;;;;41.00;36.00;;;;;;;;2;288086843;288086843;-84
2021/10/17 11:35:33;;;;;;;;;44.50;38.50;;;;;;;;2;261076414;261076414;-75
2021/10/17 11:45:01;;;;;;;;;64.00;52.00;;;;;;;;2;288080997;288080997;-79
2021/10/17 11:53:17;;;;;;;;;52.50;44.50;;;;;;;;2;261077402;261077402;-81
2021/10/17 12:02:45;;;;;;;;;40.00;36.50;;;;;;;;2;288082324;288082324;-82
2021/10/17 12:11:04;;;;;;;;;55.50;46.50;;;;;;;;2;261077362;261077362;-81
2021/10/17 12:20:33;;;;;;;;;46.00;40.50;;;;;;;;2;288079482;288079482;-79
2021/10/17 12:29:07;;;;;;;;;47.50;39.50;;;;;;;;2;261075555;261075555;-79
2021/10/17 12:38:35;;;;;;;;;48.00;41.00;;;;;;;;2;288086022;288086022;-80
2021/10/17 12:47:01;;;;;;;;;32.50;25.00;;;;;;;;2;261075558;261075558;-79
2021/10/17 12:56:29;;;;;;;;;43.50;38.00;;;;;;;;2;288085025;288085025;-76
2021/10/17 13:04:53;;;;;;;;;32.50;30.00;;;;;;;;2;261076181;261076181;-76
2021/10/17 13:14:21;;;;;;;;;16.50;16.50;;;;;;;;2;288081592;288081592;-79
2021/10/17 13:22:46;;;;;;;;;40.00;35.50;;;;;;;;2;261079057;261079057;-81
2021/10/17 13:32:13;;;;;;;;;34.00;32.00;;;;;;;;2;288083644;288083644;-81
2021/10/17 13:40:29;;;;;;;;;38.00;35.00;;;;;;;;2;261075830;261075830;-79
2021/10/17 13:49:57;;;;;;;;;52.50;41.00;;;;;;;;2;288086618;288086618;-81
2021/10/17 13:58:12;;;;;;;;;27.00;26.50;;;;;;;;2;261077386;261077386;-80
2021/10/17 14:07:40;;;;;;;;;38.50;35.00;;;;;;;;2;288087092;288087092;-79
2021/10/17 14:15:58;;;;;;;;;36.00;32.50;;;;;;;;2;261076814;261076814;-81
2021/10/17 14:25:25;;;;;;;;;48.50;41.50;;;;;;;;2;288084039;288084039;-76
2021/10/17 14:33:41;;;;;;;;;22.00;22.00;;;;;;;;2;261076896;261076896;-77
2021/10/17 14:43:08;;;;;;;;;41.50;36.50;;;;;;;;2;288083244;288083244;-77
2021/10/17 14:51:26;;;;;;;;;22.50;22.50;;;;;;;;2;261074156;261074156;-78
2021/10/17 15:00:53;;;;;;;;;36.00;33.50;;;;;;;;2;288082477;288082477;-79
2021/10/17 15:09:12;;;;;;;;;39.50;34.00;;;;;;;;2;261075739;261075739;-78
2021/10/17 15:18:44;;;;;;;;;49.00;39.50;;;;;;;;2;288085358;288085358;-77
2021/10/17 15:26:59;;;;;;;;;49.00;42.00;;;;;;;;2;261078378;261078378;-76
2021/10/17 15:36:28;;;;;;;;;29.00;28.50;;;;;;;;2;288084210;288084210;-76
2021/10/17 15:44:43;;;;;;;;;43.50;38.00;;;;;;;;2;261076393;261076393;-79
2021/10/17 15:54:11;;;;;;;;;51.50;43.50;;;;;;;;2;288082514;288082514;-77
2021/10/17 16:02:26;;;;;;;;;44.50;39.00;;;;;;;;2;261073497;261073497;-83
2021/10/17 16:11:54;;;;;;;;;55.50;46.50;;;;;;;;2;288084717;288084717;-79
2021/10/17 16:20:11;;;;;;;;;45.50;40.00;;;;;;;;2;261077410;261077410;-78
2021/10/17 16:29:39;;;;;;;;;42.00;37.50;;;;;;;;2;288083869;288083869;-79
2021/10/17 16:37:55;;;;;;;;;56.50;45.50;;;;;;;;2;261077094;261077094;-78
2021/10/17 16:47:22;;;;;;;;;55.00;46.00;;;;;;;;2;288087374;288087374;-78
2021/10/17 16:55:38;;;;;;;;;55.50;47.00;;;;;;;;2;261078836;261078836;-78
2021/10/17 17:05:06;;;;;;;;;50.00;39.50;;;;;;;;2;288087955;288087955;-80
2021/10/17 17:13:21;;;;;;;;;29.50;27.00;;;;;;;;2;261077545;261077545;-79
2021/10/17 17:22:49;;;;;;;;;47.00;40.50;;;;;;;;2;288082749;288082749;-79
2021/10/17 17:31:05;;;;;;;;;62.00;52.50;;;;;;;;2;261075812;261075812;-78
2021/10/17 17:40:33;;;;;;;;;54.50;45.00;;;;;;;;2;288085046;288085046;-81
2021/10/17 17:48:48;;;;;;;;;48.50;39.50;;;;;;;;2;261078036;261078036;-79
2021/10/17 17:58:16;;;;;;;;;49.00;40.50;;;;;;;;2;288082728;288082728;-79
2021/10/17 18:06:32;;;;;;;;;56.50;46.00;;;;;;;;2;261076911;261076911;-78
2021/10/17 18:15:59;;;;;;;;;47.00;38.50;;;;;;;;2;288084990;288084990;-78
2021/10/17 18:24:15;;;;;;;;;54.00;44.50;;;;;;;;2;261078096;261078096;-78
2021/10/17 18:33:43;;;;;;;;;46.00;40.00;;;;;;;;2;288083490;288083490;-79
2021/10/17 18:41:59;;;;;;;;;61.00;51.00;;;;;;;;2;261078227;261078227;-79
2021/10/17 18:51:27;;;;;;;;;57.50;48.00;;;;;;;;2;288084159;288084159;-80
2021/10/17 18:59:42;;;;;;;;;53.00;44.50;;;;;;;;2;261077660;261077660;-80
2021/10/17 19:09:10;;;;;;;;;64.50;52.50;;;;;;;;2;288085853;288085853;-80
2021/10/17 19:17:25;;;;;;;;;55.00;46.00;;;;;;;;2;261077174;261077174;-80
2021/10/17 19:26:53;;;;;;;;;57.00;47.50;;;;;;;;2;288087619;288087619;-80
2021/10/17 19:35:08;;;;;;;;;58.50;46.00;;;;;;;;2;261076871;261076871;-79
2021/10/17 19:44:36;;;;;;;;;44.50;35.50;;;;;;;;2;288086594;288086594;-79
2021/10/17 19:52:53;;;;;;;;;51.00;43.50;;;;;;;;2;261078497;261078497;-78
2021/10/17 20:02:21;;;;;;;;;69.50;48.50;;;;;;;;2;288089011;288089011;-78
2021/10/17 20:10:36;;;;;;;;;57.00;40.00;;;;;;;;2;261078120;261078120;-79
2021/10/17 20:20:04;;;;;;;;;47.00;39.00;;;;;;;;2;288084592;288084592;-78
2021/10/17 20:28:21;;;;;;;;;64.50;51.00;;;;;;;;2;261078006;261078006;-78
2021/10/17 20:46:04;;;;;;;;;51.00;43.00;;;;;;;;2;261077369;261077369;-79
2021/10/17 20:55:32;;;;;;;;;53.50;44.00;;;;;;;;2;288087705;288087705;-78
2021/10/17 21:03:48;;;;;;;;;51.50;42.00;;;;;;;;2;261080425;261080425;-79
2021/10/17 21:13:16;;;;;;;;;52.00;42.50;;;;;;;;2;288087357;288087357;-78
2021/10/17 21:21:32;;;;;;;;;40.00;34.50;;;;;;;;2;261079417;261079417;-78
2021/10/17 21:31:00;;;;;;;;;49.00;40.50;;;;;;;;2;288082644;288082644;-77
2021/10/17 21:39:16;;;;;;;;;61.50;44.50;;;;;;;;2;261075994;261075994;-76
2021/10/17 21:48:43;;;;;;;;;63.00;44.00;;;;;;;;2;288084512;288084512;-76
2021/10/17 21:56:59;;;;;;;;;46.00;33.50;;;;;;;;2;261076376;261076376;-76
2021/10/17 22:06:26;;;;;;;;;52.00;42.50;;;;;;;;2;288085717;288085717;-76
2021/10/17 22:14:42;;;;;;;;;57.50;47.00;;;;;;;;2;261078484;261078484;-79
2021/10/17 22:24:10;;;;;;;;;54.00;43.00;;;;;;;;2;288082621;288082621;-79
2021/10/17 22:32:25;;;;;;;;;42.00;35.00;;;;;;;;2;261077222;261077222;-79
2021/10/17 22:41:53;;;;;;;;;57.50;43.50;;;;;;;;2;288085733;288085733;-79
2021/10/17 22:50:08;;;;;;;;;52.50;43.50;;;;;;;;2;261073248;261073248;-78
2021/10/17 22:59:37;;;;;;;;;58.00;47.00;;;;;;;;2;288085170;288085170;-79
2021/10/17 23:07:52;;;;;;;;;39.50;33.50;;;;;;;;2;261077096;261077096;-79
2021/10/17 23:17:20;;;;;;;;;62.50;50.50;;;;;;;;2;288086528;288086528;-79
2021/10/17 23:25:35;;;;;;;;;56.00;45.50;;;;;;;;2;261075715;261075715;-79
2021/10/17 23:35:03;;;;;;;;;46.50;35.50;;;;;;;;2;288083373;288083373;-78
2021/10/17 23:43:18;;;;;;;;;58.00;47.50;;;;;;;;2;261079594;261079594;-78
2021/10/17 23:52:46;;;;;;;;;65.50;50.50;;;;;;;;2;288086119;288086119;-79
